Terminal Aerodrome Forecast
Issued by NWS Midland/Odessa, TX

Home | Current Version | Previous Version | Text Only | Print | Product List | Glossary On
Versions: 1 2 3 4 5 6 7 8 9 10 11 12 13 14 15 16 17 18 19
000
FTUS44 KMAF 011900 AAA
TAFMAF
TAF AMD
KMAF 011905Z 0119/0218 26011KT P6SM FEW100
     FM020100 18008KT P6SM FEW120
     FM021600 33011G17KT P6SM SKC=

USA.gov is the U.S. government's official web portal to all federal, state and local government web resources and services.